Terminal Aerodrome Forecast
Issued by NWS Shreveport, LA

Home | Current Version | Previous Version | Text Only | Print | Product List | Glossary On
Versions: 1 2 3 4 5 6 7 8 9 10 11 12 13 14 15 16 17 18 19 20
000
FTUS44 KSHV 271744
TAFTYR
TAF
KTYR 271744Z 2718/2818 19004KT P6SM SCT060 SCT250
     FM272100 17005KT P6SM VCTS SCT060CB BKN100 BKN250
     FM280200 15003KT P6SM FEW100 SCT250
     FM281200 VRB03KT 5SM BR FEW010
     FM281500 18005KT P6SM FEW015 SCT020 BKN100=

USA.gov is the U.S. government's official web portal to all federal, state and local government web resources and services.